Flight Track Log - Related Links

Times and Time Zones

All times are in EDT time to prevent confusion due to time zone crossing. See the N6068Y flight status page for this flight to view local times or setup timezone preferences in your user account.

Time Position Orientation Groundspeed Altitude Reporting Facility
EDT Latitude Longitude Course Direction KTS MPH feet Rate Location/Type
Fri 12:07:54 PM 42.5419 -83.1967 350° North 92 106 1,100  Level Cleveland Center
Fri 12:08:49 PM 42.5706 -83.2033 350° North 129 148 1,600 632 Climbing Cleveland Center
Fri 12:09:10 PM 42.5764 -83.2014 14° North 125 144 1,900 857 Climbing Cleveland Center
Fri 12:09:38 PM 42.5986 -83.1931 15° North 128 147 2,300 774 Climbing Cleveland Center
Fri 12:10:12 PM 42.6108 -83.1839 29° Northeast 130 150 2,700 800 Climbing Cleveland Center
Fri 12:10:38 PM 42.6281 -83.1661 37° Northeast 130 150 3,100 774 Climbing Cleveland Center
Fri 12:11:14 PM 42.6414 -83.1639 North 128 147 3,500 689 Climbing Cleveland Center
Fri 12:11:39 PM 42.6561 -83.1814 319° Northwest 105 121 3,800 871 Climbing Cleveland Center
Fri 12:12:16 PM 42.6664 -83.1808 North 115 132 4,400 764 Climbing Cleveland Center
Fri 12:12:34 PM 42.6811 -83.1847 349° North 97 112 4,500 581 Climbing Cleveland Center
Fri 12:13:18 PM 42.6972 -83.1939 337° Northwest 103 119 5,000 493 Climbing Cleveland Center
Fri 12:13:47 PM 42.7083 -83.2114 311° West 100 115 5,100 581 Climbing Cleveland Center
Fri 12:14:20 PM 42.7200 -83.2239 322° Northwest 106 122 5,600 875 Climbing Cleveland Center
Fri 12:14:35 PM 42.7256 -83.2336 308° West 106 122 5,800 787 Climbing Cleveland Center
Fri 12:15:21 PM 42.7347 -83.2553 300° West 93 107 6,400 627 Climbing Cleveland Center
Fri 12:15:42 PM 42.7397 -83.2669 300° West 94 108 6,500 581 Climbing Cleveland Center
Fri 12:16:23 PM 42.7525 -83.2833 317° Northwest 99 114 7,000 699 Climbing Cleveland Center
Fri 12:17:25 PM 42.7747 -83.3083 320° Northwest 98 113 7,700 629 Climbing Cleveland Center
Fri 12:18:27 PM 42.8006 -83.3269 332° Northwest 106 122 8,300 532 Climbing Cleveland Center
Fri 12:19:29 PM 42.8258 -83.3536 322° Northwest 106 122 8,800 532 Climbing Cleveland Center
Fri 12:20:31 PM 42.8528 -83.3717 334° Northwest 108 124 9,400 581 Climbing Cleveland Center
Fri 12:21:33 PM 42.8858 -83.3794 350° North 113 130 10,000 387 Climbing Cleveland Center
Fri 12:22:35 PM 42.9147 -83.3803 359° North 114 131 10,200 145 Climbing Cleveland Center
Fri 12:23:37 PM 42.9397 -83.4056 323° Northwest 118 136 10,300 -48 Climbing Cleveland Center
Fri 12:24:39 PM 42.9422 -83.4500 274° West 118 136 10,100 -97 Descending Cleveland Center
Fri 12:25:41 PM 42.9469 -83.5050 277° West 125 144 10,100  Level Cleveland Center
Fri 12:26:43 PM 42.9531 -83.5514 280° West 127 146 10,100 -48 Level Cleveland Center
Fri 12:27:45 PM 42.9617 -83.6067 282° West 138 159 10,000 -48 Descending Cleveland Center
Fri 12:28:47 PM 42.9678 -83.6572 279° West 129 148 10,000  Level Cleveland Center
Fri 12:29:49 PM 42.9722 -83.7072 277° West 134 154 10,000  Level Cleveland Center
Fri 12:30:51 PM 42.9761 -83.7497 277° West 133 153 10,000  Level Cleveland Center
Fri 12:31:53 PM 42.9842 -83.8083 281° West 131 151 10,000  Level Cleveland Center
Fri 12:32:55 PM 42.9900 -83.8575 279° West 134 154 10,000  Level Cleveland Center
Fri 12:33:57 PM 42.9958 -83.9100 279° West 131 151 10,000  Level Cleveland Center
Fri 12:34:59 PM 43.0011 -83.9572 279° West 129 148 10,000  Level Cleveland Center
Fri 12:36:01 PM 43.0069 -84.0089 279° West 129 148 10,000  Level Cleveland Center
Fri 12:37:04 PM 43.0125 -84.0586 279° West 132 152 10,000  Level Cleveland Center
Fri 12:38:06 PM 43.0189 -84.1122 279° West 135 155 10,000  Level Cleveland Center
Fri 12:39:08 PM 43.0314 -84.1594 290° West 136 157 10,000 -48 Level Cleveland Center
Fri 12:40:10 PM 43.0356 -84.2131 276° West 134 154 9,900 -48 Descending Cleveland Center
Fri 12:41:12 PM 43.0425 -84.2619 281° West 133 153 9,900  Level Cleveland Center
Fri 12:42:14 PM 43.0478 -84.3156 278° West 133 153 9,900  Level Cleveland Center
Fri 12:43:16 PM 43.0525 -84.3672 277° West 130 150 9,900  Level Cleveland Center
Fri 12:43:47 PM 43.0581 -84.3922 287° West 132 152 9,900  Level Chicago Center
Fri 12:44:49 PM 43.0628 -84.4400 278° West 131 151 9,900  Level Chicago Center
Fri 12:45:51 PM 43.0675 -84.4847 278° West 126 145 9,900  Level Chicago Center
Fri 12:46:53 PM 43.0717 -84.5439 276° West 129 148 9,900  Level Chicago Center
Fri 12:47:55 PM 43.0781 -84.5903 281° West 128 147 9,900  Level Chicago Center
Fri 12:48:57 PM 43.0811 -84.6378 275° West 126 145 9,900  Level Chicago Center
Fri 12:50:00 PM 43.0878 -84.6844 281° West 126 145 9,900  Level Chicago Center
Fri 12:51:02 PM 43.0933 -84.7300 279° West 124 143 9,900  Level Chicago Center
Fri 12:52:04 PM 43.0978 -84.7778 277° West 126 145 9,900  Level Chicago Center
Fri 12:53:06 PM 43.1044 -84.8344 279° West 126 145 9,900  Level Chicago Center
Fri 12:54:08 PM 43.1086 -84.8828 277° West 128 147 9,900  Level Chicago Center
Fri 12:55:10 PM 43.1136 -84.9306 278° West 127 146 9,900  Level Chicago Center
Fri 12:56:12 PM 43.1186 -84.9778 278° West 127 146 9,900 48 Level Chicago Center
Fri 12:57:14 PM 43.1236 -85.0258 278° West 128 147 10,000  Climbing Chicago Center
Fri 12:58:16 PM 43.1294 -85.0844 278° West 128 147 9,900 -48 Descending Chicago Center
Fri 12:59:18 PM 43.1347 -85.1297 279° West 125 144 9,900  Level Chicago Center
Fri 01:00:20 PM 43.1392 -85.1772 277° West 125 144 9,900  Level Chicago Center
Fri 01:01:22 PM 43.1433 -85.2281 276° West 128 147 9,900 48 Level Chicago Center
Fri 01:02:24 PM 43.1486 -85.2758 279° West 127 146 10,000 48 Climbing Chicago Center
Fri 01:03:26 PM 43.1536 -85.3247 278° West 128 147 10,000  Level Chicago Center
Fri 01:04:28 PM 43.1578 -85.3739 277° West 130 150 10,000  Level Chicago Center
Fri 01:05:31 PM 43.1639 -85.4342 278° West 133 153 10,000  Level Chicago Center
Fri 01:06:33 PM 43.1692 -85.4853 278° West 136 157 10,000  Level Chicago Center
Fri 01:07:35 PM 43.1739 -85.5358 277° West 136 157 10,000  Level Chicago Center
Fri 01:08:37 PM 43.1792 -85.5853 278° West 134 154 10,000  Level Chicago Center
Fri 01:09:39 PM 43.1842 -85.6328 278° West 128 147 10,000 -48 Level Chicago Center
Fri 01:10:41 PM 43.1886 -85.6825 277° West 131 151 9,900 -48 Descending Chicago Center
Fri 01:11:43 PM 43.1942 -85.7417 277° West 131 151 9,900 48 Level Chicago Center
Fri 01:12:45 PM 43.1994 -85.7944 278° West 139 160 10,000 48 Climbing Chicago Center
Fri 01:13:47 PM 43.2042 -85.8481 277° West 142 163 10,000 -48 Level Chicago Center
Fri 01:14:49 PM 43.2094 -85.8997 278° West 140 161 9,900 48 Descending Chicago Center
Fri 01:15:51 PM 43.2136 -85.9522 276° West 140 161 10,100 97 Climbing Chicago Center
Fri 01:16:53 PM 43.2194 -86.0161 277° West 142 163 10,100  Level Chicago Center
Fri 01:17:55 PM 43.2244 -86.0689 277° West 141 162 10,100  Level Chicago Center
Fri 01:18:57 PM 43.2292 -86.1206 277° West 139 160 10,100  Level Chicago Center
Fri 01:19:59 PM 43.2344 -86.1736 278° West 140 161 10,100  Level Chicago Center
Fri 01:21:01 PM 43.2389 -86.2261 277° West 140 161 10,100  Level Chicago Center
Fri 01:22:03 PM 43.2456 -86.2894 278° West 140 161 10,100  Level Chicago Center
Fri 01:23:05 PM 43.2494 -86.3414 276° West 138 159 10,100  Level Chicago Center
Fri 01:24:07 PM 43.2542 -86.3942 277° West 139 160 10,100 48 Level Chicago Center
Fri 01:25:09 PM 43.2597 -86.4475 278° West 140 161 10,200 48 Climbing Chicago Center
Fri 01:26:11 PM 43.2636 -86.4969 276° West 132 152 10,200 48 Level Chicago Center
Fri 01:27:13 PM 43.2681 -86.5464 277° West 132 152 10,300 48 Climbing Chicago Center
Fri 01:28:15 PM 43.2736 -86.6086 277° West 137 158 10,300  Level Chicago Center
Fri 01:29:17 PM 43.2775 -86.6619 276° West 142 163 10,300 97 Level Chicago Center
Fri 01:30:19 PM 43.2822 -86.7139 277° West 137 158 10,500 242 Climbing Chicago Center
Fri 01:31:21 PM 43.2869 -86.7619 278° West 129 148 10,800 339 Climbing Chicago Center
Fri 01:32:23 PM 43.2906 -86.8039 277° West 113 130 11,200 387 Climbing Chicago Center
Fri 01:33:25 PM 43.2944 -86.8433 278° West 104 120 11,600 387 Climbing Chicago Center
Fri 01:34:27 PM 43.2981 -86.8878 276° West 98 113 12,000 194 Climbing Chicago Center
Fri 01:35:29 PM 43.3019 -86.9306 277° West 111 128 12,000  Level Chicago Center
Fri 01:36:31 PM 43.3044 -86.9756 274° West 118 136 12,000 48 Level Chicago Center
Fri 01:37:33 PM 43.3097 -87.0231 279° West 124 143 12,100  Climbing Chicago Center
Fri 01:38:35 PM 43.3136 -87.0706 276° West 125 144 12,000  Descending Chicago Center
Fri 01:39:38 PM 43.3183 -87.1283 276° West 128 147 12,100 48 Climbing Chicago Center
Fri 01:40:40 PM 43.3219 -87.1775 276° West 129 148 12,100  Level Chicago Center
Fri 01:41:42 PM 43.3261 -87.2261 277° West 129 148 12,100  Level Chicago Center
Fri 01:42:44 PM 43.3308 -87.2750 278° West 130 150 12,100  Level Chicago Center
Fri 01:43:46 PM 43.3342 -87.3253 275° West 132 152 12,100  Level Chicago Center
Fri 01:44:48 PM 43.3378 -87.3792 275° West 129 148 12,100 -48 Level Chicago Center
Fri 01:45:50 PM 43.3419 -87.4303 276° West 133 153 12,000 -71 Descending Chicago Center
Fri 01:47:37 PM 43.3500 -87.5167 277° West 130 150 11,900  Descending KMKE
Fri 01:48:16 PM 43.3506 -87.5481 271° West 130 150 12,000 75 Climbing Minneapolis Center
Fri 01:48:57 PM 43.3550 -87.5858 279° West 127 146 12,000  Level Chicago Center
Fri 01:49:59 PM 43.3589 -87.6344 276° West 127 146 12,000  Level Chicago Center
Fri 01:51:01 PM 43.3625 -87.6828 276° West 127 146 12,000  Level Chicago Center
Fri 01:52:03 PM 43.3656 -87.7319 275° West 129 148 12,000  Level Chicago Center
Fri 01:53:05 PM 43.3706 -87.7822 278° West 132 152 12,000  Level Chicago Center
Fri 01:54:07 PM 43.3742 -87.8442 275° West 135 155 12,000  Level Chicago Center
Fri 01:55:10 PM 43.3781 -87.8961 276° West 137 158 12,000  Level Chicago Center
Fri 01:56:12 PM 43.3828 -87.9469 277° West 134 154 12,000  Level Chicago Center
Fri 01:57:14 PM 43.3867 -87.9992 276° West 137 158 12,000  Level Chicago Center
Fri 01:58:16 PM 43.3908 -88.0525 276° West 138 159 12,000  Level Chicago Center
Fri 01:59:21 PM 43.3947 -88.1139 275° West 136 157 12,000  Level Chicago Center
Fri 02:00:23 PM 43.3992 -88.1661 277° West 137 158 12,000  Level Chicago Center
Fri 02:01:25 PM 43.4031 -88.2178 276° West 136 157 12,000  Level Chicago Center
Fri 02:02:28 PM 43.4067 -88.2694 276° West 136 157 12,000  Level Chicago Center
Fri 02:03:30 PM 43.4103 -88.3181 276° West 129 148 12,000  Level Chicago Center
Fri 02:04:32 PM 43.4144 -88.3794 275° West 134 154 12,000  Level Chicago Center
Fri 02:05:34 PM 43.4183 -88.4328 276° West 138 159 12,000  Level Chicago Center
Fri 02:06:36 PM 43.4233 -88.4883 277° West 141 162 12,000  Level Chicago Center
Fri 02:07:38 PM 43.4289 -88.5444 278° West 143 165 12,000  Level Chicago Center
Fri 02:08:40 PM 43.4297 -88.5947 271° West 136 157 12,000  Level Chicago Center
Fri 02:09:42 PM 43.4333 -88.6469 275° West 137 158 12,000  Level Chicago Center
Fri 02:10:44 PM 43.4372 -88.6992 276° West 137 158 12,000  Level Chicago Center
Fri 02:11:47 PM 43.4408 -88.7503 276° West 136 157 12,000  Level Chicago Center
Fri 02:12:49 PM 43.4444 -88.8022 275° West 136 157 12,000 -48 Level Chicago Center
Fri 02:13:51 PM 43.4483 -88.8642 275° West 136 157 11,900 -48 Descending Chicago Center
Fri 02:14:53 PM 43.4522 -88.9161 276° West 137 158 11,900  Level Chicago Center
Fri 02:15:55 PM 43.4553 -88.9664 275° West 134 154 11,900  Level Chicago Center
Fri 02:16:57 PM 43.4586 -89.0167 275° West 132 152 11,900  Level Chicago Center
Fri 02:17:59 PM 43.4622 -89.0681 276° West 134 154 11,900  Level Chicago Center
Fri 02:19:01 PM 43.4661 -89.1278 275° West 132 152 11,900  Level Chicago Center
Fri 02:20:03 PM 43.4692 -89.1778 275° West 131 151 11,900  Level Chicago Center
Fri 02:21:05 PM 43.4725 -89.2292 275° West 133 153 11,900  Level Chicago Center
Fri 02:22:08 PM 43.4758 -89.2797 275° West 133 153 11,900  Level Chicago Center
Fri 02:23:10 PM 43.4789 -89.3311 275° West 134 154 11,900  Level Chicago Center
Fri 02:24:12 PM 43.4825 -89.3800 276° West 131 151 11,900  Level Chicago Center
Fri 02:25:14 PM 43.4850 -89.4400 273° West 130 150 11,900  Level Chicago Center
Fri 02:26:16 PM 43.4878 -89.4889 274° West 128 147 11,900  Level Chicago Center
Fri 02:27:18 PM 43.4922 -89.5361 277° West 125 144 11,900  Level Chicago Center
Fri 02:28:20 PM 43.4950 -89.5850 274° West 127 146 11,900  Level Chicago Center
Fri 02:29:22 PM 43.4975 -89.6342 274° West 129 148 11,900  Level Chicago Center
Fri 02:30:24 PM 43.5011 -89.6814 276° West 126 145 11,900  Level Chicago Center
Fri 02:31:26 PM 43.5047 -89.7394 275° West 126 145 11,900  Level Chicago Center
Fri 02:32:29 PM 43.5072 -89.7881 274° West 127 146 11,900  Level Chicago Center
Fri 02:33:30 PM 43.5103 -89.8364 275° West 127 146 11,900  Level Chicago Center
Fri 02:34:32 PM 43.5117 -89.8858 272° West 129 148 11,900  Level Chicago Center
Fri 02:35:35 PM 43.5147 -89.9347 275° West 130 150 11,900  Level Chicago Center
Fri 02:36:37 PM 43.5192 -89.9933 276° West 129 148 11,900  Level Chicago Center
Fri 02:37:39 PM 43.5211 -90.0419 273° West 128 147 11,900  Level Chicago Center
Fri 02:38:41 PM 43.5239 -90.0906 275° West 128 147 11,900  Level Chicago Center
Fri 02:39:43 PM 43.5275 -90.1417 276° West 132 152 11,900  Level Chicago Center
Fri 02:40:45 PM 43.5300 -90.1931 274° West 134 154 11,900  Level Chicago Center
Fri 02:41:47 PM 43.5322 -90.2450 273° West 137 158 11,900 48 Level Chicago Center
Fri 02:42:50 PM 43.5358 -90.3058 275° West 140 161 12,000 48 Climbing Chicago Center
Fri 02:43:52 PM 43.5383 -90.3578 274° West 139 160 12,000  Level Chicago Center
Fri 02:45:56 PM 43.5444 -90.4653 275° West 142 163 12,000  Level Chicago Center
Fri 02:46:58 PM 43.5483 -90.5289 275° West 141 162 12,000  Level Chicago Center
Fri 02:48:00 PM 43.5539 -90.5811 278° West 139 160 12,000  Level Chicago Center
Fri 02:49:02 PM 43.5611 -90.6319 281° West 137 158 12,000  Level Chicago Center
Fri 02:50:04 PM 43.5686 -90.6825 282° West 137 158 12,000  Level Chicago Center
Fri 02:51:06 PM 43.5747 -90.7319 280° West 135 155 12,000  Level Chicago Center
Fri 02:52:08 PM 43.5839 -90.7928 282° West 135 155 12,000  Level Chicago Center
Fri 02:53:11 PM 43.5908 -90.8431 281° West 134 154 12,000  Level Chicago Center
Fri 02:54:12 PM 43.5972 -90.8922 280° West 133 153 12,000 -195 Level Chicago Center
Fri 02:55:14 PM 43.6042 -90.9422 281° West 133 153 11,600 -677 Descending Chicago Center
Fri 02:56:16 PM 43.6119 -91.0014 280° West 150 173 10,600 -1,056 Descending Chicago Center
Fri 02:57:19 PM 43.6225 -91.0747 281° West 162 186 9,400 -1,056 Descending Chicago Center
Fri 02:58:21 PM 43.6308 -91.1369 281° West 165 190 8,400 -1,051 Descending Chicago Center
Fri 02:59:36 PM 43.6411 -91.2183 280° West 164 189 7,000 -1,007 Descending Minneapolis Center
Fri 03:00:38 PM 43.6494 -91.2789 281° West 167 192 6,100 -919 Descending Minneapolis Center
Fri 03:01:40 PM 43.6592 -91.3447 282° West 168 193 5,100 -871 Descending Minneapolis Center
Fri 03:02:42 PM 43.6675 -91.4058 281° West 161 185 4,300 -677 Descending Minneapolis Center
Fri 03:03:44 PM 43.6747 -91.4606 280° West 142 163 3,700 -677 Descending Minneapolis Center
Fri 03:04:46 PM 43.6819 -91.5114 281° West 137 158 2,900 -774 Descending Minneapolis Center

Login

Don't have an account? Register now (free) for customized features, flight alerts, and more!